Time;durP1;ratioP1;P1;durP2;ratioP2;P2;SDS_P1;SDS_P2;PMS_P1;PMS_P2;Temp;Humidity;BMP_temperature;BMP_pressure;BME280_temperature;BME280_humidity;BME280_pressure;Samples;Min_cycle;Max_cycle;Signal;HPM_P1;HPM_P2
2023/02/21 02:14:48;;;;;;;3.30;1.40;;;;;;;6.40;80.10;98652.08;103144;1254;137595;-66
2023/02/21 02:17:25;;;;;;;5.50;1.30;;;;;;;6.38;80.15;98665.48;103177;1260;107910;-65
2023/02/21 02:20:16;;;;;;;8.70;1.20;;;;;;;6.35;79.81;98654.19;103223;1260;138039;-68
2023/02/21 02:23:25;;;;;;;3.40;1.30;;;;;;;6.34;79.48;98653.36;103088;1254;108684;-65
2023/02/21 02:26:18;;;;;;;3.20;1.20;;;;;;;6.33;79.57;98664.97;103277;1258;138221;-65
2023/02/21 02:28:59;;;;;;;4.80;1.20;;;;;;;6.32;79.11;98660.20;103272;1260;110489;-65
2023/02/21 02:31:52;;;;;;;5.40;1.40;;;;;;;6.31;79.20;98664.05;103344;1255;137869;-65
2023/02/21 02:34:36;;;;;;;4.00;1.30;;;;;;;6.29;78.87;98664.13;103601;1257;96557;-65
2023/02/21 02:37:13;;;;;;;3.00;1.30;;;;;;;6.27;78.50;98661.90;103259;1258;108550;-65
2023/02/21 02:39:47;;;;;;;2.80;1.00;;;;;;;6.26;78.05;98663.16;103173;1260;96521;-65
2023/02/21 02:42:26;;;;;;;3.10;1.30;;;;;;;6.26;77.53;98665.06;103817;1257;109734;-65
2023/02/21 02:44:57;;;;;;;5.40;1.70;;;;;;;6.26;77.02;98658.86;103029;1254;137830;-64
2023/02/21 02:47:29;;;;;;;4.80;1.20;;;;;;;6.25;76.26;98656.48;103080;1254;96605;-65
2023/02/21 02:49:58;;;;;;;4.00;1.30;;;;;;;6.25;76.53;98669.23;103055;1254;137607;-65
2023/02/21 02:52:26;;;;;;;5.00;1.30;;;;;;;6.24;76.07;98646.50;103199;1254;96455;-65
2023/02/21 02:55:02;;;;;;;5.60;1.30;;;;;;;6.23;75.80;98649.98;103175;1259;109679;-67
2023/02/21 02:57:37;;;;;;;4.20;1.50;;;;;;;6.23;76.00;98658.29;103080;1260;109199;-66
2023/02/21 03:00:06;;;;;;;3.80;1.30;;;;;;;6.23;76.15;98657.08;103300;1260;96979;-65
2023/02/21 03:03:08;;;;;;;5.50;1.40;;;;;;;6.22;75.16;98646.77;103800;1254;137420;-66
2023/02/21 03:05:54;;;;;;;8.10;1.20;;;;;;;6.24;75.66;98657.36;103135;1254;96453;-66
2023/02/21 03:08:28;;;;;;;7.30;1.60;;;;;;;6.26;75.56;98655.77;103095;1254;137460;-66
2023/02/21 03:11:12;;;;;;;3.90;1.20;;;;;;;6.26;75.38;98657.64;103231;1254;108632;-66
2023/02/21 03:13:47;;;;;;;5.20;1.40;;;;;;;6.27;75.40;98658.13;103038;1259;138537;-66
2023/02/21 03:16:23;;;;;;;3.60;1.10;;;;;;;6.27;75.39;98656.22;103384;1254;106808;-66
2023/02/21 03:18:55;;;;;;;5.90;1.70;;;;;;;6.27;75.39;98650.38;103214;1254;96588;-65
2023/02/21 03:21:27;;;;;;;4.60;1.40;;;;;;;6.25;75.29;98649.74;103042;1254;137375;-66
2023/02/21 03:23:58;;;;;;;6.90;1.70;;;;;;;6.23;75.09;98650.87;103157;1257;107770;-66
2023/02/21 03:26:29;;;;;;;6.20;1.80;;;;;;;6.22;74.98;98654.02;103446;1256;137643;-65
2023/02/21 03:29:03;;;;;;;5.20;1.50;;;;;;;6.21;74.41;98651.13;103165;1260;107399;-66
2023/02/21 03:31:37;;;;;;;10.10;1.80;;;;;;;6.21;74.69;98660.63;103111;1259;137865;-65
2023/02/21 03:34:07;;;;;;;2.90;1.50;;;;;;;6.20;74.42;98654.10;103605;1254;109882;-66
2023/02/21 03:36:36;;;;;;;8.70;2.00;;;;;;;6.19;74.28;98650.52;103078;1254;108551;-66
2023/02/21 03:39:06;;;;;;;6.90;1.60;;;;;;;6.18;73.86;98644.88;103112;1257;137846;-65
2023/02/21 03:41:34;;;;;;;8.70;1.90;;;;;;;6.18;73.99;98649.38;103132;1254;108606;-66
2023/02/21 03:44:04;;;;;;;5.60;1.70;;;;;;;6.16;73.94;98647.38;102993;1254;137747;-65
2023/02/21 03:46:31;;;;;;;11.30;1.90;;;;;;;6.13;72.96;98651.98;103314;1254;109687;-65
2023/02/21 03:48:59;;;;;;;9.20;1.70;;;;;;;6.11;72.77;98648.45;103121;1256;108281;-65
2023/02/21 03:51:28;;;;;;;6.60;1.40;;;;;;;6.09;73.07;98657.81;103131;1254;137419;-65
2023/02/21 03:54:07;;;;;;;9.20;2.20;;;;;;;6.05;72.40;98647.08;103183;1257;109830;-66
2023/02/21 03:56:39;;;;;;;9.70;2.30;;;;;;;6.03;72.09;98657.02;103015;1254;140001;-65
2023/02/21 03:59:22;;;;;;;8.10;2.30;;;;;;;6.00;71.63;98648.65;103238;1254;110301;-66
2023/02/21 04:01:49;;;;;;;9.30;2.70;;;;;;;5.98;70.99;98647.37;102937;1259;137899;-66
2023/02/21 04:04:18;;;;;;;7.30;1.90;;;;;;;5.96;70.88;98656.77;103275;1259;96972;-66
2023/02/21 04:06:50;;;;;;;9.30;2.30;;;;;;;5.94;70.85;98660.66;102653;1254;1002730;-66
2023/02/21 04:09:17;;;;;;;11.70;2.20;;;;;;;5.90;70.47;98669.91;103008;1260;138144;-66
2023/02/21 04:11:47;;;;;;;10.40;2.00;;;;;;;5.90;70.01;98663.38;103270;1254;111793;-65
2023/02/21 04:14:14;;;;;;;9.40;2.00;;;;;;;5.86;69.58;98675.75;103517;1257;137989;-66
2023/02/21 04:16:43;;;;;;;7.80;2.00;;;;;;;5.84;69.48;98672.03;103904;1254;95486;-65
2023/02/21 04:19:10;;;;;;;10.60;2.30;;;;;;;5.81;69.81;98668.34;103267;1254;137806;-65
2023/02/21 04:21:38;;;;;;;16.40;2.00;;;;;;;5.79;69.12;98662.23;103250;1254;96430;-65
2023/02/21 04:24:08;;;;;;;16.10;2.40;;;;;;;5.78;69.21;98661.59;103163;1260;111045;-65
2023/02/21 04:26:40;;;;;;;9.40;2.20;;;;;;;5.75;68.77;98648.40;103002;1260;137985;-67
2023/02/21 04:29:17;;;;;;;10.50;2.80;;;;;;;5.74;68.92;98642.23;103126;1260;96473;-66
2023/02/21 04:31:45;;;;;;;11.40;2.10;;;;;;;5.72;69.02;98647.63;102971;1260;138709;-66
2023/02/21 04:34:15;;;;;;;13.10;2.40;;;;;;;5.70;68.78;98657.72;102438;1255;1004609;-67
2023/02/21 04:36:44;;;;;;;13.10;3.20;;;;;;;5.68;68.40;98656.59;103237;1254;109510;-66
2023/02/21 04:39:15;;;;;;;11.70;2.40;;;;;;;5.68;68.38;98665.91;103184;1260;137879;-67
2023/02/21 04:41:43;;;;;;;16.60;2.80;;;;;;;5.67;68.00;98669.59;103255;1256;96035;-65
2023/02/21 04:44:13;;;;;;;12.60;2.20;;;;;;;5.66;68.24;98670.65;102934;1254;138011;-66
2023/02/21 04:46:43;;;;;;;8.20;2.00;;;;;;;5.66;67.78;98682.56;103334;1254;96458;-67
2023/02/21 04:49:23;;;;;;;11.90;2.10;;;;;;;5.65;67.50;98663.95;102371;1256;1002935;-64
2023/02/21 04:51:51;;;;;;;11.20;2.00;;;;;;;5.65;67.14;98666.05;103193;1258;107447;-67
2023/02/21 04:54:19;;;;;;;9.80;2.20;;;;;;;5.65;66.90;98674.31;103124;1258;96368;-68
2023/02/21 04:56:49;;;;;;;15.10;2.20;;;;;;;5.65;66.76;98679.14;102951;1257;138409;-66
2023/02/21 04:59:26;;;;;;;15.10;2.40;;;;;;;5.66;67.41;98682.89;103079;1254;96498;-65
2023/02/21 05:01:54;;;;;;;11.80;2.20;;;;;;;5.67;67.48;98692.17;102909;1260;138149;-66
2023/02/21 05:04:21;;;;;;;8.30;1.80;;;;;;;5.67;67.06;98681.64;102338;1254;1003756;-66
2023/02/21 05:06:51;;;;;;;8.30;2.10;;;;;;;5.68;67.13;98687.82;103247;1254;97310;-66
2023/02/21 05:09:19;;;;;;;15.10;2.10;;;;;;;5.68;67.35;98695.39;103124;1260;137754;-66
2023/02/21 05:11:56;;;;;;;9.90;2.10;;;;;;;5.69;67.49;98691.91;103142;1259;96492;-66
2023/02/21 05:14:24;;;;;;;7.90;1.90;;;;;;;5.70;67.21;98691.52;102932;1258;137457;-67
2023/02/21 05:16:52;;;;;;;8.80;1.60;;;;;;;5.73;67.26;98690.91;103135;1256;107697;-67
2023/02/21 05:19:28;;;;;;;11.00;2.30;;;;;;;5.74;66.98;98684.30;103055;1254;137927;-67
2023/02/21 05:21:58;;;;;;;13.60;2.00;;;;;;;5.76;67.06;98678.71;103252;1254;107926;-66
2023/02/21 05:24:27;;;;;;;10.20;2.10;;;;;;;5.77;66.98;98686.45;103509;1255;96547;-66
2023/02/21 05:26:56;;;;;;;11.70;1.90;;;;;;;5.80;66.78;98687.55;103225;1259;137742;-66
2023/02/21 05:29:25;;;;;;;10.40;1.60;;;;;;;5.82;66.96;98697.14;103196;1258;108483;-65
2023/02/21 05:31:52;;;;;;;10.60;2.30;;;;;;;5.83;66.27;98681.22;103379;1256;137794;-66
2023/02/21 05:34:20;;;;;;;8.90;1.90;;;;;;;5.84;66.01;98692.73;103289;1255;107900;-65
2023/02/21 05:36:57;;;;;;;9.80;1.70;;;;;;;5.87;66.19;98689.18;103198;1260;96341;-66
2023/02/21 05:39:24;;;;;;;9.60;1.70;;;;;;;5.87;66.58;98691.58;103063;1254;139013;-66
2023/02/21 05:41:52;;;;;;;7.00;1.80;;;;;;;5.87;66.55;98685.02;103166;1254;110040;-66
2023/02/21 05:44:20;;;;;;;11.90;2.30;;;;;;;5.88;66.45;98688.63;103180;1254;137646;-65
2023/02/21 05:46:49;;;;;;;6.80;1.80;;;;;;;5.87;66.87;98693.83;103375;1259;107860;-66
2023/02/21 05:49:19;;;;;;;10.60;2.00;;;;;;;5.86;67.35;98701.78;103189;1254;138230;-66
2023/02/21 05:51:47;;;;;;;8.80;2.20;;;;;;;5.86;67.33;98696.45;103281;1258;109928;-66
2023/02/21 05:54:20;;;;;;;10.00;2.00;;;;;;;5.85;67.37;98701.85;103031;1254;108122;-66
2023/02/21 05:56:50;;;;;;;10.90;2.20;;;;;;;5.84;67.63;98703.09;103060;1260;137818;-66
2023/02/21 05:59:29;;;;;;;10.80;2.40;;;;;;;5.84;67.67;98704.47;103571;1256;109030;-66
2023/02/21 06:02:15;;;;;;;10.70;2.30;;;;;;;5.84;67.59;98706.37;103636;1254;137944;-67
2023/02/21 06:04:43;;;;;;;12.20;2.80;;;;;;;5.84;67.74;98711.69;103442;1257;109865;-66
2023/02/21 06:07:31;;;;;;;11.10;2.70;;;;;;;5.85;67.48;98711.66;103055;1254;138033;-66
2023/02/21 06:09:58;;;;;;;11.60;2.50;;;;;;;5.86;67.55;98713.00;103141;1260;96960;-66
2023/02/21 06:12:26;;;;;;;13.30;2.50;;;;;;;5.86;67.49;98726.45;103259;1258;107054;-65
2023/02/21 06:14:53;;;;;;;14.30;3.30;;;;;;;5.87;67.44;98718.30;103153;1254;137887;-66
2023/02/21 06:17:21;;;;;;;11.30;2.40;;;;;;;5.88;67.13;98715.53;103330;1254;110588;-66
2023/02/21 06:19:48;;;;;;;12.30;2.20;;;;;;;5.89;67.15;98722.23;103280;1254;138627;-65
2023/02/21 06:22:16;;;;;;;12.20;2.30;;;;;;;5.90;67.24;98722.19;103207;1258;96462;-66
2023/02/21 06:24:43;;;;;;;10.90;2.40;;;;;;;5.91;67.01;98728.02;103474;1254;106803;-66
2023/02/21 06:27:11;;;;;;;16.30;3.00;;;;;;;5.92;67.13;98732.48;103210;1254;138354;-66
2023/02/21 06:29:38;;;;;;;16.90;2.50;;;;;;;5.93;66.78;98732.98;101885;1254;1003642;-65
2023/02/21 06:32:06;;;;;;;13.50;2.40;;;;;;;5.93;66.58;98734.35;103165;1254;138259;-66
2023/02/21 06:34:33;;;;;;;12.40;2.20;;;;;;;5.94;66.88;98736.91;103622;1254;96457;-66
2023/02/21 06:37:01;;;;;;;12.60;2.30;;;;;;;5.96;66.76;98739.23;103337;1258;107439;-66
2023/02/21 06:39:28;;;;;;;11.70;2.40;;;;;;;5.97;66.21;98730.40;103164;1254;137803;-66
2023/02/21 06:41:55;;;;;;;11.30;2.50;;;;;;;5.98;66.34;98735.36;102559;1258;1002925;-66
2023/02/21 06:44:23;;;;;;;8.80;2.40;;;;;;;6.01;66.45;98736.97;103173;1254;138330;-66
2023/02/21 06:46:53;;;;;;;13.90;2.90;;;;;;;6.04;66.04;98740.31;103347;1254;96975;-66
2023/02/21 06:49:21;;;;;;;12.60;2.60;;;;;;;6.05;66.16;98741.46;103476;1255;138560;-66
2023/02/21 06:51:48;;;;;;;10.60;2.50;;;;;;;6.07;66.16;98756.74;103190;1258;96334;-66
2023/02/21 06:54:16;;;;;;;12.30;2.40;;;;;;;6.08;66.21;98754.30;103162;1256;109808;-64
2023/02/21 06:56:44;;;;;;;11.10;2.50;;;;;;;6.08;66.24;98756.19;103496;1256;138973;-66
2023/02/21 06:59:12;;;;;;;10.60;2.60;;;;;;;6.10;66.16;98759.25;103115;1254;97810;-67
2023/02/21 07:01:39;;;;;;;12.60;2.50;;;;;;;6.11;66.37;98773.55;103133;1258;138031;-67
2023/02/21 07:04:07;;;;;;;10.40;2.60;;;;;;;6.11;66.41;98776.30;103161;1254;96460;-66
2023/02/21 07:06:35;;;;;;;12.00;2.40;;;;;;;6.11;66.49;98772.84;102424;1254;1003680;-66
2023/02/21 07:09:02;;;;;;;10.50;2.10;;;;;;;6.11;66.63;98773.88;103120;1254;138041;-66
2023/02/21 07:11:30;;;;;;;14.50;2.50;;;;;;;6.12;67.42;98785.58;102539;1254;1002589;-66
2023/02/21 07:13:58;;;;;;;13.50;3.50;;;;;;;6.15;66.91;98771.99;102316;1254;1003650;-68
2023/02/21 07:16:26;;;;;;;12.50;2.20;;;;;;;6.16;66.89;98788.20;103086;1256;96311;-66
2023/02/21 07:18:53;;;;;;;16.20;2.90;;;;;;;6.15;66.87;98798.05;103230;1256;110637;-66
2023/02/21 07:21:21;;;;;;;15.00;2.80;;;;;;;6.14;67.18;98812.61;103060;1256;137833;-66
2023/02/21 07:23:49;;;;;;;15.10;2.70;;;;;;;6.14;67.10;98814.69;103213;1254;96423;-66
2023/02/21 07:26:17;;;;;;;11.30;2.40;;;;;;;6.12;67.35;98813.91;102384;1254;1003234;-66
2023/02/21 07:28:47;;;;;;;9.90;2.30;;;;;;;6.10;67.52;98822.91;103225;1254;96547;-66
2023/02/21 07:31:14;;;;;;;14.50;2.50;;;;;;;6.07;67.21;98818.35;103058;1255;137894;-65
2023/02/21 07:33:46;;;;;;;8.40;2.80;;;;;;;6.03;67.47;98837.83;103248;1255;107601;-65
2023/02/21 07:36:13;;;;;;;12.60;2.40;;;;;;;6.02;67.77;98839.23;103177;1255;97154;-65
2023/02/21 07:38:40;;;;;;;16.70;3.20;;;;;;;6.01;67.76;98846.34;103002;1254;137788;-65
2023/02/21 07:41:08;;;;;;;16.70;3.20;;;;;;;6.01;67.87;98857.59;103040;1260;96512;-65
2023/02/21 07:43:37;;;;;;;15.50;2.80;;;;;;;6.00;67.89;98852.44;103033;1255;139503;-65
2023/02/21 07:46:09;;;;;;;17.20;2.70;;;;;;;5.98;67.95;98858.89;103464;1256;108338;-65
2023/02/21 07:48:37;;;;;;;12.50;3.40;;;;;;;5.99;67.96;98868.19;103295;1255;96457;-66
2023/02/21 07:51:06;;;;;;;11.70;2.60;;;;;;;6.00;68.21;98871.92;103108;1254;137895;-66
2023/02/21 07:53:33;;;;;;;12.30;2.60;;;;;;;6.00;68.04;98872.98;103339;1256;96458;-65
2023/02/21 07:56:01;;;;;;;14.60;2.80;;;;;;;6.01;68.11;98879.83;103086;1256;137770;-65
2023/02/21 07:58:28;;;;;;;14.40;3.30;;;;;;;6.02;68.00;98874.10;102360;1254;1002900;-65
2023/02/21 08:00:56;;;;;;;12.40;3.00;;;;;;;6.03;68.06;98869.23;103247;1255;96524;-65
2023/02/21 08:03:26;;;;;;;11.10;2.90;;;;;;;6.05;68.15;98884.67;103049;1255;137695;-66
2023/02/21 08:05:54;;;;;;;13.60;2.90;;;;;;;6.08;68.09;98887.70;102400;1254;1002875;-65
2023/02/21 08:08:22;;;;;;;11.10;3.20;;;;;;;6.13;68.29;98886.15;103075;1254;138169;-65
2023/02/21 08:10:50;;;;;;;13.20;3.00;;;;;;;6.17;68.27;98888.59;103441;1255;107571;-65
2023/02/21 08:13:17;;;;;;;12.80;3.10;;;;;;;6.18;68.09;98892.85;103157;1255;138159;-67
2023/02/21 08:15:45;;;;;;;14.30;3.90;;;;;;;6.17;68.15;98895.82;103239;1258;108180;-66
2023/02/21 08:18:22;;;;;;;12.60;3.30;;;;;;;6.16;68.36;98904.33;103199;1254;96493;-66
2023/02/21 08:20:51;;;;;;;12.30;2.80;;;;;;;6.16;68.57;98904.13;103151;1254;137780;-65
2023/02/21 08:23:19;;;;;;;18.20;2.80;;;;;;;6.17;68.51;98912.22;103227;1256;108660;-65
2023/02/21 08:25:47;;;;;;;13.30;3.00;;;;;;;6.20;68.73;98914.02;103136;1254;138156;-65
2023/02/21 08:28:16;;;;;;;13.70;2.80;;;;;;;6.20;68.65;98920.05;103590;1254;108186;-66
2023/02/21 08:30:43;;;;;;;11.00;3.00;;;;;;;6.20;68.58;98914.55;103271;1254;96459;-66
2023/02/21 08:33:11;;;;;;;15.30;3.00;;;;;;;6.19;68.76;98921.14;103318;1258;137733;-66
2023/02/21 08:35:39;;;;;;;16.80;2.90;;;;;;;6.18;68.62;98920.14;102442;1256;1002938;-66
2023/02/21 08:38:09;;;;;;;12.20;2.50;;;;;;;6.17;68.79;98919.65;102951;1256;1003111;-67
2023/02/21 08:40:36;;;;;;;18.00;2.80;;;;;;;6.17;68.93;98931.92;103355;1254;107746;-65
2023/02/21 08:43:04;;;;;;;11.40;2.70;;;;;;;6.17;68.82;98931.91;103243;1255;96522;-66
2023/02/21 08:45:34;;;;;;;12.40;2.70;;;;;;;6.19;68.94;98934.78;103456;1254;110231;-67
2023/02/21 08:48:01;;;;;;;14.70;3.00;;;;;;;6.20;69.07;98948.52;103134;1258;108925;-66
2023/02/21 08:50:37;;;;;;;9.00;2.40;;;;;;;6.25;69.17;98948.54;103165;1254;137944;-66
2023/02/21 08:53:09;;;;;;;12.60;3.10;;;;;;;6.29;69.24;98952.89;103181;1254;109347;-66
2023/02/21 08:55:41;;;;;;;13.60;2.80;;;;;;;6.29;68.97;98958.41;102292;1255;1004074;-64
2023/02/21 08:58:12;;;;;;;14.40;3.30;;;;;;;6.28;69.23;98967.06;103225;1254;110506;-65
2023/02/21 09:00:40;;;;;;;12.60;3.00;;;;;;;6.30;69.20;98972.88;103074;1254;107999;-66
2023/02/21 09:03:08;;;;;;;15.80;2.80;;;;;;;6.31;69.05;98957.13;103078;1256;137904;-64
2023/02/21 09:05:35;;;;;;;15.60;2.40;;;;;;;6.33;69.29;98976.73;102399;1254;1002878;-64
2023/02/21 09:08:04;;;;;;;11.40;2.70;;;;;;;6.36;69.35;98968.86;102986;1254;138204;-64
2023/02/21 09:10:34;;;;;;;11.00;2.70;;;;;;;6.36;69.35;98971.78;103451;1254;1002631;-65
2023/02/21 09:13:02;;;;;;;15.70;3.30;;;;;;;6.34;69.23;98986.34;103161;1254;108004;-67
2023/02/21 09:15:30;;;;;;;12.90;2.60;;;;;;;6.34;69.66;98989.80;103627;1254;138069;-65
2023/02/21 09:17:59;;;;;;;10.10;3.10;;;;;;;6.36;69.88;98990.08;103168;1255;110288;-66
2023/02/21 09:20:28;;;;;;;13.90;2.40;;;;;;;6.37;70.11;98996.80;103010;1258;138013;-65
2023/02/21 09:22:55;;;;;;;11.60;2.70;;;;;;;6.37;70.10;98999.02;103333;1258;110336;-66
2023/02/21 09:25:24;;;;;;;9.60;2.70;;;;;;;6.34;70.22;98998.80;103125;1254;138066;-70
2023/02/21 09:27:57;;;;;;;16.20;3.40;;;;;;;6.37;70.32;99007.84;103369;1254;96874;-69
2023/02/21 09:30:28;;;;;;;16.60;3.60;;;;;;;6.42;70.49;99008.54;103171;1256;107270;-68
2023/02/21 09:32:57;;;;;;;14.90;3.10;;;;;;;6.45;70.62;99005.29;103111;1254;137806;-67
2023/02/21 09:35:25;;;;;;;12.30;2.80;;;;;;;6.46;70.46;99011.98;103107;1254;110983;-67
2023/02/21 09:37:53;;;;;;;18.40;3.30;;;;;;;6.50;70.48;99011.36;103248;1255;137941;-67
2023/02/21 09:40:32;;;;;;;13.30;3.00;;;;;;;6.57;70.69;99026.13;102988;1257;96602;-67
2023/02/21 09:43:03;;;;;;;11.00;2.70;;;;;;;6.67;70.74;99022.15;103322;1257;110164;-67
2023/02/21 09:45:40;;;;;;;13.30;3.10;;;;;;;6.75;70.48;99029.45;103679;1255;96408;-65
2023/02/21 09:48:17;;;;;;;11.60;3.30;;;;;;;6.77;70.40;99027.64;103043;1254;109753;-66
2023/02/21 09:50:50;;;;;;;12.60;3.20;;;;;;;6.77;70.61;99048.02;102293;1254;1003795;-65
2023/02/21 09:53:23;;;;;;;16.20;3.20;;;;;;;6.90;70.91;99050.85;103118;1255;96318;-67
2023/02/21 09:55:54;;;;;;;12.90;3.50;;;;;;;6.95;70.57;99049.96;102259;1258;1002949;-69
2023/02/21 09:58:24;;;;;;;10.50;2.50;;;;;;;6.96;70.66;99055.12;103838;1256;96467;-68
2023/02/21 10:00:52;;;;;;;11.30;3.00;;;;;;;7.01;70.61;99053.73;102985;1257;391930;-68
2023/02/21 10:03:44;;;;;;;12.50;3.10;;;;;;;7.03;70.70;99061.12;103031;1254;137820;-68
2023/02/21 10:06:20;;;;;;;7.40;2.50;;;;;;;7.01;70.68;99060.32;103170;1258;96374;-68
2023/02/21 10:08:54;;;;;;;14.90;3.40;;;;;;;6.98;70.87;99062.98;103943;1255;138207;-67
2023/02/21 10:11:32;;;;;;;18.70;3.70;;;;;;;6.96;70.93;99070.69;103148;1258;96451;-68
2023/02/21 10:14:10;;;;;;;15.00;3.30;;;;;;;6.97;71.20;99080.65;103268;1258;137671;-70
2023/02/21 10:16:45;;;;;;;12.80;3.90;;;;;;;7.01;71.14;99072.24;103083;1258;108530;-70
2023/02/21 10:19:19;;;;;;;12.30;3.30;;;;;;;7.00;71.02;99083.31;103092;1254;96355;-70
2023/02/21 10:21:50;;;;;;;12.20;3.90;;;;;;;7.02;71.02;99083.93;102433;1258;1003057;-70
2023/02/21 10:24:21;;;;;;;15.60;3.70;;;;;;;7.06;71.04;99081.88;103175;1254;96433;-71
2023/02/21 10:26:58;;;;;;;15.00;3.70;;;;;;;7.10;71.08;99093.52;103114;1256;138178;-71
2023/02/21 10:29:32;;;;;;;15.90;3.80;;;;;;;7.12;71.47;99089.44;103359;1254;107747;-71
2023/02/21 10:32:03;;;;;;;14.60;3.70;;;;;;;7.12;71.31;99084.95;103142;1254;137914;-70
2023/02/21 10:34:33;;;;;;;11.40;3.70;;;;;;;7.10;71.45;99084.33;103570;1255;107926;-69
2023/02/21 10:37:11;;;;;;;14.80;3.20;;;;;;;7.14;71.52;99081.59;103164;1255;96624;-70
2023/02/21 10:39:49;;;;;;;14.00;3.70;;;;;;;7.17;71.16;99084.42;102208;1254;1003088;-68
2023/02/21 10:42:32;;;;;;;14.60;3.90;;;;;;;7.13;71.06;99087.15;103091;1256;107395;-67
2023/02/21 10:45:05;;;;;;;12.00;2.90;;;;;;;7.11;71.09;99082.73;102931;1256;137835;-67
2023/02/21 10:47:45;;;;;;;15.40;3.50;;;;;;;7.10;71.06;99099.20;103743;1254;107871;-67
2023/02/21 10:50:13;;;;;;;12.80;3.40;;;;;;;7.07;70.98;99099.86;103134;1254;137992;-67
2023/02/21 10:52:49;;;;;;;9.40;3.10;;;;;;;7.01;71.10;99101.09;103103;1256;111081;-67
2023/02/21 10:55:22;;;;;;;10.30;3.30;;;;;;;6.95;71.07;99107.33;102926;1256;110883;-67
2023/02/21 10:58:07;;;;;;;12.80;3.50;;;;;;;6.90;71.41;99112.02;103091;1254;97013;-68
2023/02/21 11:00:37;;;;;;;14.50;3.30;;;;;;;6.86;71.64;99114.92;104509;1254;109002;-66
2023/02/21 11:03:13;;;;;;;14.20;3.10;;;;;;;6.84;71.67;99112.93;104370;1254;138234;-66
2023/02/21 11:05:40;;;;;;;12.90;3.40;;;;;;;6.82;71.43;99110.05;104513;1254;110196;-67
2023/02/21 11:08:10;;;;;;;15.60;3.90;;;;;;;6.82;71.01;99116.98;104331;1254;140472;-68
2023/02/21 11:10:40;;;;;;;13.80;3.30;;;;;;;6.82;70.98;99126.48;104424;1258;95162;-67
2023/02/21 11:13:14;;;;;;;9.10;2.50;;;;;;;6.79;70.88;99121.06;104470;1254;109206;-66
2023/02/21 11:15:42;;;;;;;13.50;3.20;;;;;;;6.77;70.89;99126.99;104385;1254;137403;-66
2023/02/21 11:18:17;;;;;;;10.60;3.00;;;;;;;6.79;70.95;99122.08;104517;1254;110001;-66
2023/02/21 11:20:46;;;;;;;14.20;3.70;;;;;;;6.85;70.96;99133.98;103610;1258;137878;-66
2023/02/21 11:23:27;;;;;;;13.50;3.40;;;;;;;6.92;70.89;99130.77;103338;1256;96358;-66
2023/02/21 11:26:00;;;;;;;13.90;3.20;;;;;;;7.04;70.37;99128.14;102998;1254;137924;-66
2023/02/21 11:28:28;;;;;;;14.00;3.10;;;;;;;7.10;70.14;99136.88;103430;1255;96716;-66
2023/02/21 11:31:13;;;;;;;9.50;2.80;;;;;;;7.18;70.32;99140.05;103334;1258;110295;-67
2023/02/21 11:33:45;;;;;;;8.90;2.70;;;;;;;7.30;70.12;99142.40;103239;1258;138369;-66
2023/02/21 11:36:16;;;;;;;11.20;2.60;;;;;;;7.39;69.20;99132.39;102525;1254;1003088;-65
2023/02/21 11:38:58;;;;;;;10.50;3.10;;;;;;;7.41;68.79;99141.66;103175;1254;138222;-66
2023/02/21 11:41:31;;;;;;;11.40;3.10;;;;;;;7.43;68.79;99135.17;103200;1255;96306;-65
2023/02/21 11:43:58;;;;;;;14.60;2.80;;;;;;;7.48;68.60;99134.12;103277;1254;137836;-65
2023/02/21 11:46:45;;;;;;;10.50;2.90;;;;;;;7.52;68.15;99131.37;104027;1254;107575;-66
2023/02/21 11:49:23;;;;;;;12.50;3.20;;;;;;;7.53;68.37;99138.21;103337;1254;96803;-65
2023/02/21 11:51:56;;;;;;;12.00;3.50;;;;;;;7.54;68.70;99143.06;103183;1258;107796;-68
2023/02/21 11:54:29;;;;;;;10.90;3.00;;;;;;;7.57;68.33;99139.14;103516;1254;96307;-69
2023/02/21 11:57:03;;;;;;;12.40;2.90;;;;;;;7.60;67.72;99134.38;103216;1255;137758;-66
2023/02/21 11:59:46;;;;;;;10.60;2.70;;;;;;;7.59;67.71;99141.48;103209;1254;109113;-66
2023/02/21 12:02:35;;;;;;;7.90;2.40;;;;;;;7.62;66.73;99143.11;103101;1254;137832;-66
2023/02/21 12:05:16;;;;;;;13.50;3.20;;;;;;;7.64;66.73;99143.39;103336;1256;107265;-66
2023/02/21 12:07:51;;;;;;;16.70;3.10;;;;;;;7.67;65.93;99131.50;103312;1258;137987;-66
2023/02/21 12:10:39;;;;;;;9.40;2.80;;;;;;;7.61;66.17;99147.83;103280;1256;110825;-66
2023/02/21 12:13:22;;;;;;;10.60;3.20;;;;;;;7.56;66.81;99156.65;103189;1254;108083;-64
2023/02/21 12:16:00;;;;;;;11.80;2.80;;;;;;;7.60;66.93;99152.70;103224;1255;96324;-68
2023/02/21 12:19:03;;;;;;;15.20;2.80;;;;;;;7.64;66.15;99147.53;103909;1255;107777;-67
2023/02/21 12:22:00;;;;;;;10.00;2.90;;;;;;;7.61;66.42;99160.80;103100;1255;137957;-67
2023/02/21 12:24:43;;;;;;;13.80;3.60;;;;;;;7.61;66.39;99155.08;102489;1260;1003685;-66
2023/02/21 12:27:21;;;;;;;12.70;4.20;;;;;;;7.62;66.44;99161.27;103083;1260;138256;-66
2023/02/21 12:30:12;;;;;;;11.30;3.10;;;;;;;7.65;66.58;99166.17;103096;1260;98080;-66
2023/02/21 12:32:56;;;;;;;10.80;3.30;;;;;;;7.71;66.61;99165.08;103471;1257;137675;-66
2023/02/21 12:36:11;;;;;;;12.70;3.20;;;;;;;7.72;66.52;99171.61;103179;1257;96455;-66
2023/02/21 12:38:48;;;;;;;10.80;3.30;;;;;;;7.79;66.70;99169.27;103415;1256;137634;-67
2023/02/21 12:41:31;;;;;;;10.60;2.90;;;;;;;7.88;66.26;99165.11;103068;1255;107452;-67
2023/02/21 12:44:06;;;;;;;13.10;3.40;;;;;;;7.94;65.51;99170.61;103135;1256;138071;-67
2023/02/21 12:46:39;;;;;;;9.90;3.20;;;;;;;8.01;65.19;99164.26;103465;1255;109229;-68
2023/02/21 12:49:13;;;;;;;8.40;2.60;;;;;;;8.13;65.11;99171.95;103328;1256;96323;-68
2023/02/21 12:51:44;;;;;;;9.90;2.50;;;;;;;8.23;64.53;99170.31;103089;1257;137523;-68
2023/02/21 12:54:16;;;;;;;8.60;2.20;;;;;;;8.26;63.65;99168.65;103151;1256;108020;-68
2023/02/21 12:56:51;;;;;;;9.20;2.40;;;;;;;8.26;64.11;99172.30;103140;1259;138246;-67
2023/02/21 12:59:26;;;;;;;9.30;2.80;;;;;;;8.30;64.13;99178.36;103541;1259;106844;-68
2023/02/21 13:02:00;;;;;;;10.90;2.80;;;;;;;8.40;64.08;99180.43;103217;1255;137796;-67
2023/02/21 13:04:36;;;;;;;11.20;3.10;;;;;;;8.54;64.48;99189.56;103344;1256;109381;-68
2023/02/21 13:07:24;;;;;;;10.10;3.40;;;;;;;8.62;64.33;99189.59;103031;1256;106776;-69
2023/02/21 13:10:00;;;;;;;11.30;3.00;;;;;;;8.60;63.64;99180.47;103471;1256;96876;-68
2023/02/21 13:12:33;;;;;;;9.90;2.80;;;;;;;8.57;63.81;99196.02;103116;1260;109488;-68
2023/02/21 13:15:04;;;;;;;10.00;2.50;;;;;;;8.45;63.50;99193.02;103085;1260;137651;-68
2023/02/21 13:17:32;;;;;;;11.70;3.00;;;;;;;8.31;63.72;99200.34;102395;1255;1004154;-67
2023/02/21 13:20:06;;;;;;;12.50;3.20;;;;;;;8.25;64.28;99212.14;103107;1257;139703;-68
2023/02/21 13:22:51;;;;;;;7.50;3.00;;;;;;;8.25;64.56;99216.12;103302;1256;96438;-68
2023/02/21 13:25:51;;;;;;;16.20;3.50;;;;;;;8.23;64.74;99216.23;103142;1260;138584;-66
2023/02/21 13:28:22;;;;;;;10.20;3.40;;;;;;;8.14;64.70;99224.02;103186;1255;96420;-66
2023/02/21 13:30:52;;;;;;;10.80;3.30;;;;;;;7.96;64.88;99226.26;103077;1259;110668;-67
2023/02/21 13:33:30;;;;;;;10.80;3.70;;;;;;;7.81;65.50;99232.70;102167;1258;1002601;-69
2023/02/21 13:36:00;;;;;;;13.40;3.30;;;;;;;7.69;65.79;99234.19;103179;1256;96451;-69
2023/02/21 13:38:29;;;;;;;14.90;4.20;;;;;;;7.57;65.87;99229.08;103257;1255;137879;-68
2023/02/21 13:41:08;;;;;;;14.30;4.30;;;;;;;7.50;66.21;99240.75;103446;1256;96338;-68
2023/02/21 13:43:38;;;;;;;13.70;3.40;;;;;;;7.45;66.37;99247.33;104399;1256;138005;-69
2023/02/21 13:46:26;;;;;;;13.60;3.30;;;;;;;7.42;66.61;99249.70;103092;1255;106845;-68
2023/02/21 13:49:23;;;;;;;10.50;3.70;;;;;;;7.42;67.08;99250.56;103153;1255;96439;-68
2023/02/21 13:51:54;;;;;;;10.50;3.40;;;;;;;7.43;67.26;99256.56;102299;1259;1003397;-68
2023/02/21 13:54:25;;;;;;;13.70;3.90;;;;;;;7.44;67.46;99260.88;103094;1256;96548;-68
2023/02/21 13:56:56;;;;;;;14.80;4.00;;;;;;;7.46;67.67;99259.59;102932;1256;138600;-67
2023/02/21 13:59:35;;;;;;;10.60;3.80;;;;;;;7.46;67.69;99262.34;103194;1260;107699;-69